KLNN

Willoughby Lost Nation Municipal Airport

Willoughby, Ohio, USA
METAR KLNN 271135Z AUTO 18003KT 10SM OVC011 19/17 A2991 RMK AO1 T01900174
Observed Flight Rules
May-27 @ 11:35 UTC (32 minutes ago) Marginal Visual Flight Rules
Wind Visibility Clouds
180° at 3 knots 10 miles
  • Overcast at 1,100' AGL
Temperatures Readings
Current 19°C / 66°F
Dewpoint 17°C / 63°F
Humidity 88%
Altimeter 29.91" Hg
Pressure 1013 hPa
Elevation 191
METAR KLNN 271135Z AUTO 18003KT 10SM OVC011 19/17 A2991 RMK AO1 T01900174
Observed Flight Rules
May-27 @ 11:35 UTC
(32 minutes ago)
MVFR
Wind Visibility
180° at 3 knots 10 miles
Clouds
  • Overcast at 1,100' AGL
Temperature Dewpoint
19°C / 66°F 17°C / 63°F
Humidity Altimeter Pressure
88% 29.91" Hg 1013 hPa